sensor_id;sensor_type;location;lat;lon;timestamp;pressure;altitude;pressure_sealevel;temperature;humidity
13836;BME280;6988;52.614;13.500;2023-08-30T00:01:05;54262.06;;;-143.77;85.92
13836;BME280;6988;52.614;13.500;2023-08-30T00:06:03;54262.06;;;-143.77;85.73
13836;BME280;6988;52.614;13.500;2023-08-30T00:10:55;54274.38;;;-143.77;85.81
13836;BME280;6988;52.614;13.500;2023-08-30T00:15:49;54272.31;;;-143.77;86.07
13836;BME280;6988;52.614;13.500;2023-08-30T00:20:42;54280.53;;;-143.77;86.18
13836;BME280;6988;52.614;13.500;2023-08-30T00:25:34;54290.78;;;-143.77;86.45
13836;BME280;6988;52.614;13.500;2023-08-30T00:30:25;54274.38;;;-143.77;86.55
13836;BME280;6988;52.614;13.500;2023-08-30T00:35:17;54266.16;;;-143.77;86.58
13836;BME280;6988;52.614;13.500;2023-08-30T00:40:11;54290.78;;;-143.77;86.79
13836;BME280;6988;52.614;13.500;2023-08-30T00:45:04;54266.16;;;-143.77;86.79
13836;BME280;6988;52.614;13.500;2023-08-30T00:49:57;54274.38;;;-143.77;86.75
13836;BME280;6988;52.614;13.500;2023-08-30T00:54:49;54274.38;;;-143.77;86.45
13836;BME280;6988;52.614;13.500;2023-08-30T00:59:42;54272.31;;;-143.77;86.67
13836;BME280;6988;52.614;13.500;2023-08-30T01:04:34;54270.25;;;-143.77;86.57
13836;BME280;6988;52.614;13.500;2023-08-30T01:09:26;54284.63;;;-143.77;86.53
13836;BME280;6988;52.614;13.500;2023-08-30T01:14:22;54264.09;;;-143.77;86.26
13836;BME280;6988;52.614;13.500;2023-08-30T01:19:38;54268.22;;;-143.77;86.14
13836;BME280;6988;52.614;13.500;2023-08-30T01:24:44;54280.53;;;-143.77;86.20
13836;BME280;6988;52.614;13.500;2023-08-30T01:29:39;54309.25;;;-143.77;85.97
13836;BME280;6988;52.614;13.500;2023-08-30T01:34:32;54282.56;;;-143.77;85.88
13836;BME280;6988;52.614;13.500;2023-08-30T01:39:26;54290.78;;;-143.77;85.88
13836;BME280;6988;52.614;13.500;2023-08-30T01:44:18;54303.09;;;-143.77;86.10
13836;BME280;6988;52.614;13.500;2023-08-30T01:49:12;54274.38;;;-143.77;85.91
13836;BME280;6988;52.614;13.500;2023-08-30T01:54:07;54260.00;;;-143.77;85.74
13836;BME280;6988;52.614;13.500;2023-08-30T01:59:04;54262.06;;;-143.77;85.96
13836;BME280;6988;52.614;13.500;2023-08-30T02:03:56;54315.41;;;-143.77;86.13
13836;BME280;6988;52.614;13.500;2023-08-30T02:08:55;54282.56;;;-143.77;85.99
13836;BME280;6988;52.614;13.500;2023-08-30T02:13:53;54237.44;;;-143.77;85.98
13836;BME280;6988;52.614;13.500;2023-08-30T02:18:46;54307.19;;;-143.77;86.15
13836;BME280;6988;52.614;13.500;2023-08-30T02:23:39;54323.59;;;-143.77;86.25
13836;BME280;6988;52.614;13.500;2023-08-30T02:28:32;54284.63;;;-143.77;86.23
13836;BME280;6988;52.614;13.500;2023-08-30T02:33:24;54282.56;;;-143.77;86.23
13836;BME280;6988;52.614;13.500;2023-08-30T02:38:16;54315.41;;;-143.77;86.10
13836;BME280;6988;52.614;13.500;2023-08-30T02:43:08;54280.53;;;-143.77;85.97
13836;BME280;6988;52.614;13.500;2023-08-30T02:48:03;54282.56;;;-143.77;85.50
13836;BME280;6988;52.614;13.500;2023-08-30T02:52:55;54282.56;;;-143.77;85.51
13836;BME280;6988;52.614;13.500;2023-08-30T02:57:47;54278.47;;;-143.77;85.53
13836;BME280;6988;52.614;13.500;2023-08-30T03:02:39;54298.97;;;-143.77;85.54
13836;BME280;6988;52.614;13.500;2023-08-30T03:07:32;54292.84;;;-143.77;85.74
13836;BME280;6988;52.614;13.500;2023-08-30T03:12:24;54344.13;;;-143.77;85.64
13836;BME280;6988;52.614;13.500;2023-08-30T03:17:16;54342.06;;;-143.77;85.86
13836;BME280;6988;52.614;13.500;2023-08-30T03:22:08;54319.50;;;-143.77;85.95
13836;BME280;6988;52.614;13.500;2023-08-30T03:27:01;54321.56;;;-143.77;85.95
13836;BME280;6988;52.614;13.500;2023-08-30T03:31:53;54331.81;;;-143.77;86.16
13836;BME280;6988;52.614;13.500;2023-08-30T03:36:45;54340.03;;;-143.77;85.86
13836;BME280;6988;52.614;13.500;2023-08-30T03:41:44;54335.91;;;-143.77;86.17
13836;BME280;6988;52.614;13.500;2023-08-30T03:46:37;54325.66;;;-143.77;86.42
13836;BME280;6988;52.614;13.500;2023-08-30T03:51:29;54358.50;;;-143.77;86.50
13836;BME280;6988;52.614;13.500;2023-08-30T03:56:21;54358.50;;;-143.77;86.82
13836;BME280;6988;52.614;13.500;2023-08-30T04:01:14;54331.81;;;-143.77;86.86
13836;BME280;6988;52.614;13.500;2023-08-30T04:06:07;54311.28;;;-143.77;86.97
13836;BME280;6988;52.614;13.500;2023-08-30T04:10:59;54331.81;;;-143.77;86.77
13836;BME280;6988;52.614;13.500;2023-08-30T04:15:51;54352.34;;;-143.77;86.37
13836;BME280;6988;52.614;13.500;2023-08-30T04:20:45;54340.03;;;-143.77;86.35
13836;BME280;6988;52.614;13.500;2023-08-30T04:25:39;54340.03;;;-143.77;86.45
13836;BME280;6988;52.614;13.500;2023-08-30T04:30:31;54356.44;;;-143.77;86.74
13836;BME280;6988;52.614;13.500;2023-08-30T04:35:23;54356.44;;;-143.77;87.23
13836;BME280;6988;52.614;13.500;2023-08-30T04:40:14;54344.13;;;-143.77;87.33
13836;BME280;6988;52.614;13.500;2023-08-30T04:45:09;54311.28;;;-143.77;87.29
13836;BME280;6988;52.614;13.500;2023-08-30T04:50:02;54325.66;;;-143.77;87.21
13836;BME280;6988;52.614;13.500;2023-08-30T04:54:54;54327.72;;;-143.77;86.75
13836;BME280;6988;52.614;13.500;2023-08-30T04:59:48;54333.88;;;-143.77;87.02
13836;BME280;6988;52.614;13.500;2023-08-30T05:04:41;54325.66;;;-143.77;86.97
13836;BME280;6988;52.614;13.500;2023-08-30T05:09:34;54303.09;;;-143.77;87.04
13836;BME280;6988;52.614;13.500;2023-08-30T05:14:26;54298.97;;;-143.77;87.12
13836;BME280;6988;52.614;13.500;2023-08-30T05:19:18;54319.50;;;-143.77;87.24
13836;BME280;6988;52.614;13.500;2023-08-30T05:24:12;54284.63;;;-143.77;87.31
13836;BME280;6988;52.614;13.500;2023-08-30T05:29:04;54290.78;;;-143.77;87.16
13836;BME280;6988;52.614;13.500;2023-08-30T05:33:56;54282.56;;;-143.77;86.54
13836;BME280;6988;52.614;13.500;2023-08-30T05:39:08;54282.56;;;-143.77;85.81
13836;BME280;6988;52.614;13.500;2023-08-30T05:44:08;54301.03;;;-143.77;85.91
13836;BME280;6988;52.614;13.500;2023-08-30T05:49:00;54288.72;;;-143.77;85.90
13836;BME280;6988;52.614;13.500;2023-08-30T05:53:54;54280.53;;;-143.77;86.15
13836;BME280;6988;52.614;13.500;2023-08-30T05:58:46;54266.16;;;-143.77;86.51
13836;BME280;6988;52.614;13.500;2023-08-30T06:03:40;54276.41;;;-143.77;86.50
13836;BME280;6988;52.614;13.500;2023-08-30T06:08:32;54247.69;;;-143.77;86.23
13836;BME280;6988;52.614;13.500;2023-08-30T06:13:24;54249.75;;;-143.77;86.25
13836;BME280;6988;52.614;13.500;2023-08-30T06:18:16;54204.59;;;-143.77;85.86
13836;BME280;6988;52.614;13.500;2023-08-30T06:23:09;54241.53;;;-143.77;85.43
13836;BME280;6988;52.614;13.500;2023-08-30T06:28:02;54229.22;;;-143.77;84.70
13836;BME280;6988;52.614;13.500;2023-08-30T06:32:54;54227.16;;;-143.77;84.00
13836;BME280;6988;52.614;13.500;2023-08-30T06:37:49;54218.97;;;-143.77;83.70
13836;BME280;6988;52.614;13.500;2023-08-30T06:42:43;54200.50;;;-143.77;82.93
13836;BME280;6988;52.614;13.500;2023-08-30T06:47:34;54214.88;;;-143.77;82.68
13836;BME280;6988;52.614;13.500;2023-08-30T06:52:27;54184.09;;;-143.77;82.52
13836;BME280;6988;52.614;13.500;2023-08-30T06:57:19;54161.50;;;-143.77;82.26
13836;BME280;6988;52.614;13.500;2023-08-30T07:02:13;54165.63;;;-143.77;82.09
13836;BME280;6988;52.614;13.500;2023-08-30T07:07:07;54165.63;;;-143.77;81.47
13836;BME280;6988;52.614;13.500;2023-08-30T07:11:59;54179.97;;;-143.77;81.40
13836;BME280;6988;52.614;13.500;2023-08-30T07:16:51;54182.03;;;-143.77;81.46
13836;BME280;6988;52.614;13.500;2023-08-30T07:21:44;54138.94;;;-143.77;80.92
13836;BME280;6988;52.614;13.500;2023-08-30T07:26:36;54130.75;;;-143.77;80.17
13836;BME280;6988;52.614;13.500;2023-08-30T07:31:28;54159.47;;;-143.77;80.06
13836;BME280;6988;52.614;13.500;2023-08-30T07:36:20;54128.69;;;-143.77;79.20
13836;BME280;6988;52.614;13.500;2023-08-30T07:41:13;54126.63;;;-143.77;77.99
13836;BME280;6988;52.614;13.500;2023-08-30T07:46:05;54126.63;;;-143.77;77.22
13836;BME280;6988;52.614;13.500;2023-08-30T07:50:58;54122.53;;;-143.77;76.72
13836;BME280;6988;52.614;13.500;2023-08-30T07:55:50;54130.75;;;-143.77;76.14
13836;BME280;6988;52.614;13.500;2023-08-30T08:00:44;54134.84;;;-143.77;77.25
13836;BME280;6988;52.614;13.500;2023-08-30T08:05:36;54110.22;;;-143.77;77.28
13836;BME280;6988;52.614;13.500;2023-08-30T08:10:28;54102.00;;;-143.77;76.17
13836;BME280;6988;52.614;13.500;2023-08-30T08:15:20;54093.81;;;-143.77;75.86
13836;BME280;6988;52.614;13.500;2023-08-30T08:20:14;54114.31;;;-143.77;73.34
13836;BME280;6988;52.614;13.500;2023-08-30T08:25:06;54104.06;;;-143.77;73.81
13836;BME280;6988;52.614;13.500;2023-08-30T08:30:00;54089.72;;;-143.77;73.96
13836;BME280;6988;52.614;13.500;2023-08-30T08:34:52;54077.41;;;-143.77;73.03
13836;BME280;6988;52.614;13.500;2023-08-30T08:39:45;54091.75;;;-143.77;72.46
13836;BME280;6988;52.614;13.500;2023-08-30T08:44:42;54067.13;;;-143.77;72.04
13836;BME280;6988;52.614;13.500;2023-08-30T08:49:35;54114.31;;;-143.77;73.10
13836;BME280;6988;52.614;13.500;2023-08-30T08:54:27;54056.88;;;-143.77;73.12
13836;BME280;6988;52.614;13.500;2023-08-30T08:59:21;54007.63;;;-143.77;73.82
13836;BME280;6988;52.614;13.500;2023-08-30T09:04:13;53954.28;;;-143.77;71.94
13836;BME280;6988;52.614;13.500;2023-08-30T09:09:05;53919.41;;;-143.77;70.20
13836;BME280;6988;52.614;13.500;2023-08-30T09:13:59;53864.03;;;-143.77;66.40
13836;BME280;6988;52.614;13.500;2023-08-30T09:18:59;53874.28;;;-143.77;64.46
13836;BME280;6988;52.614;13.500;2023-08-30T09:23:58;53818.88;;;-143.77;64.16
13836;BME280;6988;52.614;13.500;2023-08-30T09:28:50;53853.75;;;-143.77;62.60
13836;BME280;6988;52.614;13.500;2023-08-30T09:33:44;53685.53;;;-143.77;62.04
13836;BME280;6988;52.614;13.500;2023-08-30T09:38:40;53679.38;;;-143.77;61.04
13836;BME280;6988;52.614;13.500;2023-08-30T09:43:33;53654.75;;;-143.77;59.71
13836;BME280;6988;52.614;13.500;2023-08-30T09:48:28;53679.38;;;-143.77;57.88
13836;BME280;6988;52.614;13.500;2023-08-30T09:53:25;53695.78;;;-143.77;54.60
13836;BME280;6988;52.614;13.500;2023-08-30T09:58:21;53704.00;;;-143.77;56.47
13836;BME280;6988;52.614;13.500;2023-08-30T10:03:14;53699.91;;;-143.77;58.59
13836;BME280;6988;52.614;13.500;2023-08-30T10:08:07;53628.09;;;-143.77;55.58
13836;BME280;6988;52.614;13.500;2023-08-30T10:13:01;53632.19;;;-143.77;53.03
13836;BME280;6988;52.614;13.500;2023-08-30T10:17:58;53695.78;;;-143.77;55.34
13836;BME280;6988;52.614;13.500;2023-08-30T10:22:52;53519.38;;;-143.77;51.09
13836;BME280;6988;52.614;13.500;2023-08-30T10:27:48;53463.97;;;-143.77;51.05
13836;BME280;6988;52.614;13.500;2023-08-30T10:32:41;53453.72;;;-143.77;50.57
13836;BME280;6988;52.614;13.500;2023-08-30T10:37:34;53412.69;;;-143.77;48.57
13836;BME280;6988;52.614;13.500;2023-08-30T10:42:27;53410.66;;;-143.77;46.99
13836;BME280;6988;52.614;13.500;2023-08-30T10:47:22;53445.50;;;-143.77;45.90
13836;BME280;6988;52.614;13.500;2023-08-30T10:52:16;53470.13;;;-143.77;46.72
13836;BME280;6988;52.614;13.500;2023-08-30T10:57:15;53535.78;;;-143.77;42.99
13836;BME280;6988;52.614;13.500;2023-08-30T11:02:07;53638.34;;;-143.77;45.49
13836;BME280;6988;52.614;13.500;2023-08-30T11:06:59;53654.75;;;-143.77;48.01
13836;BME280;6988;52.614;13.500;2023-08-30T11:11:52;53662.97;;;-143.77;49.80
13836;BME280;6988;52.614;13.500;2023-08-30T11:16:45;53662.97;;;-143.77;47.48
13836;BME280;6988;52.614;13.500;2023-08-30T11:21:39;53689.63;;;-143.77;48.70
13836;BME280;6988;52.614;13.500;2023-08-30T11:26:32;53701.94;;;-143.77;47.40
13836;BME280;6988;52.614;13.500;2023-08-30T11:31:25;53662.97;;;-143.77;52.70
13836;BME280;6988;52.614;13.500;2023-08-30T11:36:20;53572.72;;;-143.77;47.06
13836;BME280;6988;52.614;13.500;2023-08-30T11:41:13;53564.50;;;-143.77;46.79
13836;BME280;6988;52.614;13.500;2023-08-30T11:46:05;53650.66;;;-143.77;45.74
13836;BME280;6988;52.614;13.500;2023-08-30T11:50:57;53537.84;;;-143.77;47.39
13836;BME280;6988;52.614;13.500;2023-08-30T11:55:52;53591.16;;;-143.77;44.40
13836;BME280;6988;52.614;13.500;2023-08-30T12:00:45;53640.41;;;-143.77;44.81
13836;BME280;6988;52.614;13.500;2023-08-30T12:05:44;53701.94;;;-143.77;45.03
13836;BME280;6988;52.614;13.500;2023-08-30T12:10:36;53671.19;;;-143.77;48.90
13836;BME280;6988;52.614;13.500;2023-08-30T12:15:31;53669.13;;;-143.77;46.19
13836;BME280;6988;52.614;13.500;2023-08-30T12:20:24;53699.91;;;-143.77;47.90
13836;BME280;6988;52.614;13.500;2023-08-30T12:25:18;53681.44;;;-143.77;47.40
13836;BME280;6988;52.614;13.500;2023-08-30T12:30:10;53689.63;;;-143.77;44.99
13836;BME280;6988;52.614;13.500;2023-08-30T12:35:05;53675.28;;;-143.77;47.31
13836;BME280;6988;52.614;13.500;2023-08-30T12:39:57;53699.91;;;-143.77;47.38
13836;BME280;6988;52.614;13.500;2023-08-30T12:44:49;53687.59;;;-143.77;46.21
13836;BME280;6988;52.614;13.500;2023-08-30T12:49:40;53689.63;;;-143.77;46.25
13836;BME280;6988;52.614;13.500;2023-08-30T12:54:34;53732.72;;;-143.77;45.35
13836;BME280;6988;52.614;13.500;2023-08-30T12:59:26;53749.13;;;-143.77;48.35
13836;BME280;6988;52.614;13.500;2023-08-30T13:04:17;53759.41;;;-143.77;47.87
13836;BME280;6988;52.614;13.500;2023-08-30T13:09:09;53792.22;;;-143.77;47.73
13836;BME280;6988;52.614;13.500;2023-08-30T13:14:03;53812.72;;;-143.77;51.07
13836;BME280;6988;52.614;13.500;2023-08-30T13:18:55;53855.81;;;-143.77;52.49
13836;BME280;6988;52.614;13.500;2023-08-30T13:23:47;53823.00;;;-143.77;51.50
13836;BME280;6988;52.614;13.500;2023-08-30T13:28:39;53831.19;;;-143.77;52.90
13836;BME280;6988;52.614;13.500;2023-08-30T13:33:32;53829.16;;;-143.77;53.00
13836;BME280;6988;52.614;13.500;2023-08-30T13:38:24;53823.00;;;-143.77;53.21
13836;BME280;6988;52.614;13.500;2023-08-30T13:43:16;53841.44;;;-143.77;53.05
13836;BME280;6988;52.614;13.500;2023-08-30T13:48:08;53851.72;;;-143.77;54.72
13836;BME280;6988;52.614;13.500;2023-08-30T13:53:02;53849.66;;;-143.77;52.50
13836;BME280;6988;52.614;13.500;2023-08-30T13:57:54;53814.78;;;-143.77;53.90
13836;BME280;6988;52.614;13.500;2023-08-30T14:02:46;53796.31;;;-143.77;52.98
13836;BME280;6988;52.614;13.500;2023-08-30T14:07:38;53808.63;;;-143.77;53.78
13836;BME280;6988;52.614;13.500;2023-08-30T14:12:31;53816.84;;;-143.77;49.71
13836;BME280;6988;52.614;13.500;2023-08-30T14:17:24;53771.69;;;-143.77;51.38
13836;BME280;6988;52.614;13.500;2023-08-30T14:22:16;53706.06;;;-143.77;49.95
13836;BME280;6988;52.614;13.500;2023-08-30T14:27:08;53673.22;;;-143.77;51.72
13836;BME280;6988;52.614;13.500;2023-08-30T14:32:01;53687.59;;;-143.77;46.31
13836;BME280;6988;52.614;13.500;2023-08-30T14:36:53;53613.72;;;-143.77;47.19
13836;BME280;6988;52.614;13.500;2023-08-30T14:41:47;53601.44;;;-143.77;44.44
13836;BME280;6988;52.614;13.500;2023-08-30T14:46:39;53679.38;;;-143.77;47.34
13836;BME280;6988;52.614;13.500;2023-08-30T14:51:32;53720.41;;;-143.77;48.02
13836;BME280;6988;52.614;13.500;2023-08-30T14:56:24;53726.56;;;-143.77;49.94
13836;BME280;6988;52.614;13.500;2023-08-30T15:01:16;53605.53;;;-143.77;47.78
13836;BME280;6988;52.614;13.500;2023-08-30T15:06:08;53699.91;;;-143.77;44.54
13836;BME280;6988;52.614;13.500;2023-08-30T15:11:02;53708.09;;;-143.77;44.95
13836;BME280;6988;52.614;13.500;2023-08-30T15:15:54;53730.66;;;-143.77;45.77
13836;BME280;6988;52.614;13.500;2023-08-30T15:20:46;53781.97;;;-143.77;46.80
13836;BME280;6988;52.614;13.500;2023-08-30T15:25:39;53769.66;;;-143.77;48.23
13836;BME280;6988;52.614;13.500;2023-08-30T15:30:33;53767.59;;;-143.77;48.25
13836;BME280;6988;52.614;13.500;2023-08-30T15:35:25;53779.91;;;-143.77;47.76
13836;BME280;6988;52.614;13.500;2023-08-30T15:40:16;53765.53;;;-143.77;46.34
13836;BME280;6988;52.614;13.500;2023-08-30T15:45:09;53786.06;;;-143.77;48.11
13836;BME280;6988;52.614;13.500;2023-08-30T15:50:02;53812.72;;;-143.77;49.39
13836;BME280;6988;52.614;13.500;2023-08-30T15:54:55;53818.88;;;-143.77;54.49
13836;BME280;6988;52.614;13.500;2023-08-30T15:59:46;53820.94;;;-143.77;55.42
13836;BME280;6988;52.614;13.500;2023-08-30T16:04:39;53843.50;;;-143.77;56.65
13836;BME280;6988;52.614;13.500;2023-08-30T16:09:32;53837.34;;;-143.77;57.96
13836;BME280;6988;52.614;13.500;2023-08-30T16:14:24;53841.44;;;-143.77;59.84
13836;BME280;6988;52.614;13.500;2023-08-30T16:19:16;53900.94;;;-143.77;58.06
13836;BME280;6988;52.614;13.500;2023-08-30T16:24:09;53876.34;;;-143.77;57.68
13836;BME280;6988;52.614;13.500;2023-08-30T16:29:02;53870.19;;;-143.77;57.06
13836;BME280;6988;52.614;13.500;2023-08-30T16:33:55;53872.22;;;-143.77;58.04
13836;BME280;6988;52.614;13.500;2023-08-30T16:38:47;53874.28;;;-143.77;58.16
13836;BME280;6988;52.614;13.500;2023-08-30T16:43:39;53890.69;;;-143.77;59.38
13836;BME280;6988;52.614;13.500;2023-08-30T16:48:32;53896.84;;;-143.77;58.04
13836;BME280;6988;52.614;13.500;2023-08-30T16:53:24;53900.94;;;-143.77;57.87
13836;BME280;6988;52.614;13.500;2023-08-30T16:58:15;53929.69;;;-143.77;58.69
13836;BME280;6988;52.614;13.500;2023-08-30T17:03:07;53909.16;;;-143.77;57.46
13836;BME280;6988;52.614;13.500;2023-08-30T17:08:00;53917.38;;;-143.77;58.70
13836;BME280;6988;52.614;13.500;2023-08-30T17:12:52;53917.38;;;-143.77;60.58
13836;BME280;6988;52.614;13.500;2023-08-30T17:17:48;53935.84;;;-143.77;61.73
13836;BME280;6988;52.614;13.500;2023-08-30T17:22:40;53944.03;;;-143.77;62.11
13836;BME280;6988;52.614;13.500;2023-08-30T17:27:34;53939.94;;;-143.77;63.08
13836;BME280;6988;52.614;13.500;2023-08-30T17:32:26;53978.91;;;-143.77;64.01
13836;BME280;6988;52.614;13.500;2023-08-30T17:37:18;53950.19;;;-143.77;64.87
13836;BME280;6988;52.614;13.500;2023-08-30T17:42:10;53972.75;;;-143.77;65.16
13836;BME280;6988;52.614;13.500;2023-08-30T17:47:04;53974.81;;;-143.77;65.57
13836;BME280;6988;52.614;13.500;2023-08-30T17:51:56;53991.22;;;-143.77;65.72
13836;BME280;6988;52.614;13.500;2023-08-30T17:56:47;54007.63;;;-143.77;65.56
13836;BME280;6988;52.614;13.500;2023-08-30T18:01:39;53991.22;;;-143.77;65.52
13836;BME280;6988;52.614;13.500;2023-08-30T18:06:36;54003.53;;;-143.77;66.50
13836;BME280;6988;52.614;13.500;2023-08-30T18:11:28;54063.03;;;-143.77;66.81
13836;BME280;6988;52.614;13.500;2023-08-30T18:16:20;54052.78;;;-143.77;66.27
13836;BME280;6988;52.614;13.500;2023-08-30T18:21:13;54028.16;;;-143.77;66.65
13836;BME280;6988;52.614;13.500;2023-08-30T18:26:06;54054.81;;;-143.77;67.35
13836;BME280;6988;52.614;13.500;2023-08-30T18:30:58;54044.56;;;-143.77;67.57
13836;BME280;6988;52.614;13.500;2023-08-30T18:35:50;54091.75;;;-143.77;67.48
13836;BME280;6988;52.614;13.500;2023-08-30T18:40:42;54097.91;;;-143.77;67.61
13836;BME280;6988;52.614;13.500;2023-08-30T18:45:43;54102.00;;;-143.77;67.44
13836;BME280;6988;52.614;13.500;2023-08-30T18:50:35;54093.81;;;-143.77;68.11
13836;BME280;6988;52.614;13.500;2023-08-30T18:55:27;54106.13;;;-143.77;69.12
13836;BME280;6988;52.614;13.500;2023-08-30T19:00:23;54114.31;;;-143.77;69.46
13836;BME280;6988;52.614;13.500;2023-08-30T19:05:16;54122.53;;;-143.77;69.76
13836;BME280;6988;52.614;13.500;2023-08-30T19:10:09;54116.38;;;-143.77;69.86
13836;BME280;6988;52.614;13.500;2023-08-30T19:15:02;54102.00;;;-143.77;70.09
13836;BME280;6988;52.614;13.500;2023-08-30T19:19:54;54114.31;;;-143.77;70.19
13836;BME280;6988;52.614;13.500;2023-08-30T19:24:47;54114.31;;;-143.77;70.49
13836;BME280;6988;52.614;13.500;2023-08-30T19:29:39;54155.38;;;-143.77;70.83
13836;BME280;6988;52.614;13.500;2023-08-30T19:34:31;54159.47;;;-143.77;71.17
13836;BME280;6988;52.614;13.500;2023-08-30T19:39:23;54130.75;;;-143.77;71.69
13836;BME280;6988;52.614;13.500;2023-08-30T19:44:17;54171.78;;;-143.77;71.99
13836;BME280;6988;52.614;13.500;2023-08-30T19:49:08;54173.81;;;-143.77;72.11
13836;BME280;6988;52.614;13.500;2023-08-30T19:54:00;54165.63;;;-143.77;72.43
13836;BME280;6988;52.614;13.500;2023-08-30T19:58:53;54184.09;;;-143.77;72.70
13836;BME280;6988;52.614;13.500;2023-08-30T20:03:47;54167.66;;;-143.77;73.82
13836;BME280;6988;52.614;13.500;2023-08-30T20:08:39;54147.16;;;-143.77;74.25
13836;BME280;6988;52.614;13.500;2023-08-30T20:13:31;54196.41;;;-143.77;74.72
13836;BME280;6988;52.614;13.500;2023-08-30T20:18:23;54184.09;;;-143.77;74.67
13836;BME280;6988;52.614;13.500;2023-08-30T20:23:16;54147.16;;;-143.77;74.55
13836;BME280;6988;52.614;13.500;2023-08-30T20:28:08;54190.25;;;-143.77;75.14
13836;BME280;6988;52.614;13.500;2023-08-30T20:33:00;54169.72;;;-143.77;75.29
13836;BME280;6988;52.614;13.500;2023-08-30T20:37:52;54182.03;;;-143.77;75.65
13836;BME280;6988;52.614;13.500;2023-08-30T20:42:47;54177.94;;;-143.77;75.45
13836;BME280;6988;52.614;13.500;2023-08-30T20:47:39;54151.25;;;-143.77;75.50
13836;BME280;6988;52.614;13.500;2023-08-30T20:52:31;54175.88;;;-143.77;75.75
13836;BME280;6988;52.614;13.500;2023-08-30T20:57:22;54169.72;;;-143.77;75.71
13836;BME280;6988;52.614;13.500;2023-08-30T21:02:17;54179.97;;;-143.77;76.08
13836;BME280;6988;52.614;13.500;2023-08-30T21:07:09;54225.13;;;-143.77;76.10
13836;BME280;6988;52.614;13.500;2023-08-30T21:12:00;54188.19;;;-143.77;76.74
13836;BME280;6988;52.614;13.500;2023-08-30T21:16:53;54202.56;;;-143.77;76.86
13836;BME280;6988;52.614;13.500;2023-08-30T21:21:46;54206.66;;;-143.77;77.20
13836;BME280;6988;52.614;13.500;2023-08-30T21:26:38;54202.56;;;-143.77;77.22
13836;BME280;6988;52.614;13.500;2023-08-30T21:31:30;54212.81;;;-143.77;76.89
13836;BME280;6988;52.614;13.500;2023-08-30T21:36:22;54221.03;;;-143.77;77.15
13836;BME280;6988;52.614;13.500;2023-08-30T21:41:15;54235.38;;;-143.77;77.07
13836;BME280;6988;52.614;13.500;2023-08-30T22:03:59;54225.13;;;-143.77;76.65
13836;BME280;6988;52.614;13.500;2023-08-30T22:08:53;54206.66;;;-143.77;77.49
13836;BME280;6988;52.614;13.500;2023-08-30T22:13:45;54239.47;;;-143.77;77.92
13836;BME280;6988;52.614;13.500;2023-08-30T22:18:37;54227.16;;;-143.77;78.15
13836;BME280;6988;52.614;13.500;2023-08-30T22:23:30;54233.31;;;-143.77;78.50
13836;BME280;6988;52.614;13.500;2023-08-30T22:28:22;54255.91;;;-143.77;78.72
13836;BME280;6988;52.614;13.500;2023-08-30T22:33:16;54249.75;;;-143.77;78.50
13836;BME280;6988;52.614;13.500;2023-08-30T22:38:08;54266.16;;;-143.77;78.59
13836;BME280;6988;52.614;13.500;2023-08-30T22:43:02;54255.91;;;-143.77;79.05
13836;BME280;6988;52.614;13.500;2023-08-30T22:47:54;54227.16;;;-143.77;79.97
13836;BME280;6988;52.614;13.500;2023-08-30T22:52:46;54239.47;;;-143.77;80.56
13836;BME280;6988;52.614;13.500;2023-08-30T22:57:38;54241.53;;;-143.77;81.08
13836;BME280;6988;52.614;13.500;2023-08-30T23:02:32;54266.16;;;-143.77;81.41
13836;BME280;6988;52.614;13.500;2023-08-30T23:07:25;54233.31;;;-143.77;81.38
13836;BME280;6988;52.614;13.500;2023-08-30T23:12:17;54251.78;;;-143.77;81.78
13836;BME280;6988;52.614;13.500;2023-08-30T23:17:10;54241.53;;;-143.77;81.57
13836;BME280;6988;52.614;13.500;2023-08-30T23:22:04;54270.25;;;-143.77;81.80
13836;BME280;6988;52.614;13.500;2023-08-30T23:26:56;54251.78;;;-143.77;81.50
13836;BME280;6988;52.614;13.500;2023-08-30T23:31:47;54268.22;;;-143.77;81.49
13836;BME280;6988;52.614;13.500;2023-08-30T23:36:39;54249.75;;;-143.77;81.32
13836;BME280;6988;52.614;13.500;2023-08-30T23:41:32;54243.59;;;-143.77;80.94
13836;BME280;6988;52.614;13.500;2023-08-30T23:46:24;54237.44;;;-143.77;80.39
13836;BME280;6988;52.614;13.500;2023-08-30T23:51:17;54216.91;;;-143.77;79.96
13836;BME280;6988;52.614;13.500;2023-08-30T23:56:09;54208.72;;;-143.77;79.40
